Rutland, ND (58067)

5:26 AM CDT on September 30, 2014 (GMT -0500)
Gwinner-melroe | Change Station
CLOSE
Current Station
Airport
Location: Gwinner,
Elevation: 1266 ft
Nearby Weather Stations

Elev 1266 ft 46.22 °N, 97.64 °W | Updated 11 minutes ago

Overcast
Overcast
48 °F
Feels Like 48 °F
N
16
Wind Variable Wind from ESE

Today
High -- | Low -- °F
--% Chance of Precip.
Yesterday
High -- | Low -- °F
Precip. -- in
7:27 AM 7:11 PM
Waxing Crescent, 35% visible
Pressure 29.93 in
Visibility -9999.0 miles
Clouds Overcast 700 ft
Dew Point 46 °F
Humidity 93%
Rainfall 0.00 in
Snow Depth Not available.
UV 0 out of 12
Pollen 1.70 out of 12
Air Quality Not available.
Flu Activity Not available.
METAR KGWR 301015Z AUTO 12014KT OVC007 09/08 A2993 RMK A01 P000

More Conditions Fewer Conditions

Pressure 29.93 in
Visibility -9999.0 miles
Clouds Overcast 700 ft
Dew Point 46 °F
Humidity 93%
Rainfall 0.00 in
Snow Depth Not available.
UV 0 out of 12
Pollen 1.70 out of 12
Air Quality Not available.
Flu Activity Not available.
METAR KGWR 301015Z AUTO 12014KT OVC007 09/08 A2993 RMK A01 P000

More Conditions Fewer Conditions

10-Day Weather Forecast

Almanac

Astronomy

Sep. 30, 2014 Rise Set
Actual Time 7:27 AM CDT 7:11 PM CDT
Civil Twilight 6:57 AM CDT 7:41 PM CDT
Nautical Twilight 6:22 AM CDT 8:16 PM CDT
Astronomical Twilight 5:47 AM CDT 8:51 PM CDT
Moon 1:51 PM CDT 11:28 PM CDT
Length of Visible Light 12h 44m
Length of Day
11h 44m
Tomorrow will be 3m 13s shorter.
Waxing Crescent, 35% of the Moon is Illuminated
Today
Waxing Crescent
Oct 1
First Quarter
Oct 8
Full
Oct 15
Last Quarter
Oct 23
New

Today's Extremes

State Highs State Lows

Community

WunderPhotos

Upload Photos

1,757,610 photos uploaded!

WunderBlogs® & News

Nearby

Snow Depth

Station Depth Elevation
No new snow has been reported.

Earthquake Activity

City Distance Mag. Time & Date
No recent earthquake activity has been reported nearby.
Minimum magnitude displayed is 2.5.

Coastal Water Temperatures

Place Temperature
No Stations Reporting

Nearby Weather Stations